createdAt,value
2017-10-17T00:00:41.649Z,18.65
2017-10-17T00:01:42.018Z,18.65
2017-10-17T00:02:41.612Z,18.66
2017-10-17T00:03:41.999Z,18.69
2017-10-17T00:04:41.912Z,18.69
2017-10-17T00:05:41.916Z,18.73
2017-10-17T00:06:41.891Z,18.65
2017-10-17T00:07:41.942Z,18.67
2017-10-17T00:08:41.540Z,18.65
2017-10-17T00:09:41.920Z,18.73
2017-10-17T00:10:41.802Z,18.75
2017-10-17T00:11:41.473Z,18.78
2017-10-17T00:12:41.802Z,18.74
2017-10-17T00:13:41.441Z,18.82
2017-10-17T00:14:41.753Z,18.8
2017-10-17T00:15:41.091Z,18.74
2017-10-17T00:16:41.401Z,18.77
2017-10-17T00:17:41.757Z,18.66
2017-10-17T00:18:41.036Z,18.7
2017-10-17T00:19:41.669Z,18.6
2017-10-17T00:20:41.334Z,18.63
2017-10-17T00:21:41.634Z,18.56
2017-10-17T00:22:41.312Z,18.56
2017-10-17T00:23:41.294Z,18.42
2017-10-17T00:24:40.945Z,18.52
2017-10-17T00:25:41.570Z,18.44
2017-10-17T00:26:41.561Z,18.42
2017-10-17T00:27:40.896Z,18.44
2017-10-17T00:28:41.532Z,18.42
2017-10-17T00:29:41.199Z,18.42
2017-10-17T00:30:41.490Z,18.37
2017-10-17T00:31:41.169Z,18.47
2017-10-17T00:32:41.464Z,18.37
2017-10-17T00:33:40.801Z,18.25
2017-10-17T00:34:41.430Z,18.27
2017-10-17T00:35:40.822Z,18.38
2017-10-17T00:36:41.080Z,18.27
2017-10-17T00:37:41.079Z,18.25
2017-10-17T00:38:41.049Z,18.29
2017-10-17T00:39:41.084Z,18.23
2017-10-17T00:40:41.334Z,18.3
2017-10-17T00:41:41.359Z,18.35
2017-10-17T00:42:40.659Z,18.35
2017-10-17T00:43:40.962Z,18.45
2017-10-17T00:44:40.955Z,18.42
2017-10-17T00:45:41.262Z,18.38
2017-10-17T00:46:40.920Z,18.35
2017-10-17T00:47:40.583Z,18.26
2017-10-17T00:48:41.212Z,18.35
2017-10-17T00:49:40.881Z,18.29
2017-10-17T00:50:40.876Z,18.26
2017-10-17T00:51:40.841Z,18.25
2017-10-17T00:52:41.143Z,18.26
2017-10-17T00:53:41.132Z,18.29
2017-10-17T00:54:40.791Z,18.05
2017-10-17T00:55:40.792Z,18.12
2017-10-17T00:56:41.073Z,18.18
2017-10-17T00:57:41.062Z,17.98
2017-10-17T00:58:41.062Z,18.01
2017-10-17T00:59:40.727Z,18.07
2017-10-17T01:00:41.026Z,18.14
2017-10-17T01:01:40.698Z,18.15
2017-10-17T01:02:40.698Z,18.26
2017-10-17T01:03:40.961Z,18.23
2017-10-17T01:04:40.970Z,18.18
2017-10-17T01:05:40.943Z,18.14
2017-10-17T01:06:40.601Z,18.23
2017-10-17T01:07:40.912Z,18.1
2017-10-17T01:08:40.896Z,18.04
2017-10-17T01:09:40.561Z,18.05
2017-10-17T01:10:40.872Z,18.1
2017-10-17T01:11:40.859Z,18.14
2017-10-17T01:12:40.823Z,18.1
2017-10-17T01:13:40.161Z,18.08
2017-10-17T01:14:40.487Z,18.11
2017-10-17T01:15:40.784Z,18.04
2017-10-17T01:16:40.770Z,18.07
2017-10-17T01:17:40.761Z,18.02
2017-10-17T01:18:40.725Z,17.95
2017-10-17T01:19:40.736Z,17.83
2017-10-17T01:20:40.692Z,17.93
2017-10-17T01:21:40.357Z,17.8
2017-10-17T01:22:40.672Z,17.85
2017-10-17T01:23:40.652Z,17.9
2017-10-17T01:24:40.050Z,17.92
2017-10-17T01:25:40.414Z,17.89
2017-10-17T01:26:40.271Z,18.01
2017-10-17T01:27:40.259Z,18
2017-10-17T01:28:40.592Z,17.93
2017-10-17T01:29:40.565Z,17.96
2017-10-17T01:30:40.541Z,17.95
2017-10-17T01:31:40.276Z,17.98
2017-10-17T01:32:40.511Z,17.98
2017-10-17T01:33:40.169Z,17.89
2017-10-17T01:34:40.242Z,17.8
2017-10-17T01:35:39.800Z,17.78
2017-10-17T01:36:40.168Z,17.86
2017-10-17T01:37:40.160Z,17.75
2017-10-17T01:38:40.090Z,17.74
2017-10-17T01:39:40.401Z,17.75
2017-10-17T01:40:40.390Z,17.78
2017-10-17T01:41:40.359Z,17.65
2017-10-17T01:42:40.024Z,17.83
2017-10-17T01:43:40.001Z,17.77
2017-10-17T01:44:40.320Z,17.74
2017-10-17T01:45:40.281Z,17.78
2017-10-17T01:46:40.272Z,17.82
2017-10-17T01:47:40.054Z,17.77
2017-10-17T01:48:40.268Z,17.78
2017-10-17T01:49:40.232Z,17.83
2017-10-17T01:50:40.227Z,17.77
2017-10-17T01:51:40.212Z,17.75
2017-10-17T01:52:39.862Z,17.71
2017-10-17T01:53:40.163Z,17.83
2017-10-17T01:54:39.826Z,17.78
2017-10-17T01:55:39.804Z,17.77
2017-10-17T01:56:40.111Z,17.75
2017-10-17T01:57:39.779Z,17.8
2017-10-17T01:58:40.083Z,17.82
2017-10-17T01:59:39.755Z,17.83
2017-10-17T02:00:39.716Z,17.82
2017-10-17T02:01:39.723Z,17.83
2017-10-17T02:02:39.690Z,17.78
2017-10-17T02:03:39.996Z,17.8
2017-10-17T02:04:39.665Z,17.78
2017-10-17T02:05:39.656Z,17.68
2017-10-17T02:06:39.952Z,17.77
2017-10-17T02:07:39.931Z,17.74
2017-10-17T02:08:39.934Z,17.75
2017-10-17T02:09:39.897Z,17.7
2017-10-17T02:10:39.563Z,17.65
2017-10-17T02:11:39.543Z,17.71
2017-10-17T02:12:39.200Z,17.68
2017-10-17T02:13:39.504Z,17.68
2017-10-17T02:14:39.491Z,17.72
2017-10-17T02:15:39.791Z,17.71
2017-10-17T02:16:39.780Z,17.75
2017-10-17T02:17:39.775Z,17.68
2017-10-17T02:18:39.751Z,17.68
2017-10-17T02:19:39.746Z,17.67
2017-10-17T02:20:39.733Z,17.67
2017-10-17T02:21:39.373Z,17.64
2017-10-17T02:22:39.351Z,17.71
2017-10-17T02:23:39.351Z,17.71
2017-10-17T02:24:39.655Z,17.68
2017-10-17T02:25:39.300Z,17.74
2017-10-17T02:26:39.612Z,17.62
2017-10-17T02:27:39.276Z,17.71
2017-10-17T02:28:39.309Z,17.65
2017-10-17T02:29:39.254Z,17.64
2017-10-17T02:30:39.236Z,17.68
2017-10-17T02:31:39.214Z,17.68
2017-10-17T02:32:39.611Z,17.62
2017-10-17T02:33:39.512Z,17.7
2017-10-17T02:34:39.567Z,17.67
2017-10-17T02:35:39.471Z,17.7
2017-10-17T02:36:39.141Z,17.67
2017-10-17T02:37:39.114Z,17.64
2017-10-17T02:38:39.441Z,17.7
2017-10-17T02:39:39.083Z,17.68
2017-10-17T02:40:38.741Z,17.65
2017-10-17T02:41:39.364Z,17.62
2017-10-17T02:42:39.111Z,17.68
2017-10-17T02:43:38.687Z,17.54
2017-10-17T02:44:39.022Z,17.52
2017-10-17T02:45:38.991Z,17.49
2017-10-17T02:46:39.022Z,17.4
2017-10-17T02:47:39.262Z,17.37
2017-10-17T02:48:38.943Z,17.33
2017-10-17T02:49:38.925Z,17.18
2017-10-17T02:50:38.971Z,17.22
2017-10-17T02:51:38.565Z,17.15
2017-10-17T02:52:39.195Z,17.18
2017-10-17T02:53:39.208Z,17.19
2017-10-17T02:54:38.843Z,17.3
2017-10-17T02:55:38.823Z,17.21
2017-10-17T02:56:39.171Z,17.31
2017-10-17T02:57:38.792Z,17.31
2017-10-17T02:58:39.134Z,17.19
2017-10-17T02:59:38.838Z,17.08
2017-10-17T03:00:39.172Z,17.08
2017-10-17T03:01:39.096Z,17.16
2017-10-17T03:02:38.801Z,17.11
2017-10-17T03:03:39.074Z,17.12
2017-10-17T03:04:39.032Z,17.12
2017-10-17T03:05:38.651Z,17.05
2017-10-17T03:06:38.744Z,17.01
2017-10-17T03:07:38.991Z,17.05
2017-10-17T03:08:38.666Z,17.14
2017-10-17T03:09:38.586Z,17.19
2017-10-17T03:10:38.985Z,17.36
2017-10-17T03:11:38.551Z,17.34
2017-10-17T03:12:38.542Z,17.31
2017-10-17T03:13:38.519Z,17.29
2017-10-17T03:14:38.492Z,17.36
2017-10-17T03:15:38.489Z,17.3
2017-10-17T03:16:38.473Z,17.34
2017-10-17T03:17:38.483Z,17.33
2017-10-17T03:18:38.442Z,17.36
2017-10-17T03:19:38.473Z,17.34
2017-10-17T03:20:38.403Z,17.44
2017-10-17T03:21:38.713Z,17.44
2017-10-17T03:22:38.055Z,17.48
2017-10-17T03:23:38.352Z,17.48
2017-10-17T03:24:38.344Z,17.45
2017-10-17T03:25:38.431Z,17.33
2017-10-17T03:26:38.623Z,17.29
2017-10-17T03:27:38.636Z,17.16
2017-10-17T03:28:38.583Z,17.16
2017-10-17T03:29:38.586Z,17.18
2017-10-17T03:30:38.610Z,17.18
2017-10-17T03:31:38.233Z,17.3
2017-10-17T03:32:38.569Z,17.26
2017-10-17T03:33:38.502Z,17.36
2017-10-17T03:34:38.492Z,17.34
2017-10-17T03:35:38.150Z,17.33
2017-10-17T03:36:38.512Z,17.31
2017-10-17T03:37:38.442Z,17.39
2017-10-17T03:38:38.426Z,17.44
2017-10-17T03:39:38.086Z,17.42
2017-10-17T03:40:38.393Z,17.39
2017-10-17T03:41:38.385Z,17.3
2017-10-17T03:42:38.357Z,17.33
2017-10-17T03:43:38.342Z,17.36
2017-10-17T03:44:38.367Z,17.37
2017-10-17T03:45:38.304Z,17.34
2017-10-17T03:46:38.308Z,17.36
2017-10-17T03:47:38.278Z,17.21
2017-10-17T03:48:37.932Z,17.22
2017-10-17T03:49:38.233Z,17.21
2017-10-17T03:50:37.888Z,17.14
2017-10-17T03:51:38.214Z,17.19
2017-10-17T03:52:38.205Z,17.11
2017-10-17T03:53:37.872Z,17.09
2017-10-17T03:54:38.153Z,17.01
2017-10-17T03:55:37.812Z,16.93
2017-10-17T03:56:38.120Z,16.98
2017-10-17T03:57:37.775Z,16.98
2017-10-17T03:58:38.104Z,16.94
2017-10-17T03:59:38.072Z,16.97
2017-10-17T04:00:38.072Z,16.96
2017-10-17T04:01:38.045Z,16.83
2017-10-17T04:02:38.038Z,16.96
2017-10-17T04:03:37.693Z,16.93
2017-10-17T04:04:37.995Z,16.96
2017-10-17T04:05:37.655Z,16.98
2017-10-17T04:06:37.962Z,17
2017-10-17T04:07:37.933Z,17.06
2017-10-17T04:08:37.933Z,17
2017-10-17T04:09:37.896Z,17.09
2017-10-17T04:10:37.883Z,17.08
2017-10-17T04:11:37.550Z,17.12
2017-10-17T04:12:37.856Z,17.09
2017-10-17T04:13:37.844Z,17.05
2017-10-17T04:14:37.813Z,17.16
2017-10-17T04:15:37.482Z,17.14
2017-10-17T04:16:37.457Z,17.21
2017-10-17T04:17:37.444Z,17.19
2017-10-17T04:18:37.425Z,17.24
2017-10-17T04:19:37.414Z,17.22
2017-10-17T04:20:37.403Z,17.16
2017-10-17T04:21:37.063Z,17.26
2017-10-17T04:22:37.680Z,17.16
2017-10-17T04:23:37.681Z,17.09
2017-10-17T04:24:37.650Z,17.19
2017-10-17T04:25:36.993Z,17.12
2017-10-17T04:26:37.299Z,17.15
2017-10-17T04:27:37.294Z,17.18
2017-10-17T04:28:37.279Z,17.12
2017-10-17T04:29:37.243Z,17
2017-10-17T04:30:37.234Z,17.08
2017-10-17T04:31:37.213Z,17.11
2017-10-17T04:32:37.205Z,16.98
2017-10-17T04:33:37.521Z,17.08
2017-10-17T04:34:37.482Z,17.09
2017-10-17T04:35:37.235Z,17.16
2017-10-17T04:36:37.136Z,17.11
2017-10-17T04:37:37.444Z,17.08
2017-10-17T04:38:37.087Z,17.08
2017-10-17T04:39:37.209Z,17.12
2017-10-17T04:40:37.376Z,17.21
2017-10-17T04:41:37.369Z,17.26
2017-10-17T04:42:37.024Z,17.21
2017-10-17T04:43:37.317Z,17.14
2017-10-17T04:44:36.989Z,17.19
2017-10-17T04:45:37.314Z,17.29
2017-10-17T04:46:36.966Z,17.33
2017-10-17T04:47:36.722Z,17.31
2017-10-17T04:48:37.274Z,17.34
2017-10-17T04:49:37.239Z,17.29
2017-10-17T04:50:37.223Z,17.27
2017-10-17T04:51:37.203Z,17.18
2017-10-17T04:52:37.180Z,17.16
2017-10-17T04:53:36.922Z,17.16
2017-10-17T04:54:37.154Z,17.19
2017-10-17T04:55:36.811Z,17.21
2017-10-17T04:56:36.795Z,17.21
2017-10-17T04:57:37.092Z,17.14
2017-10-17T04:58:36.860Z,17.16
2017-10-17T04:59:36.893Z,17.15
2017-10-17T05:00:37.043Z,17.21
2017-10-17T05:01:36.786Z,17.15
2017-10-17T05:02:37.016Z,17.14
2017-10-17T05:03:36.362Z,17.18
2017-10-17T05:04:36.971Z,17.18
2017-10-17T05:05:36.652Z,17.3
2017-10-17T05:06:36.957Z,17.3
2017-10-17T05:07:36.928Z,17.29
2017-10-17T05:08:36.913Z,17.31
2017-10-17T05:09:36.902Z,17.3
2017-10-17T05:10:36.873Z,17.21
2017-10-17T05:11:36.545Z,17.18
2017-10-17T05:12:36.874Z,17.15
2017-10-17T05:13:36.835Z,17.22
2017-10-17T05:14:36.825Z,17.18
2017-10-17T05:15:36.488Z,17.22
2017-10-17T05:16:36.780Z,17.27
2017-10-17T05:17:36.763Z,17.29
2017-10-17T05:18:36.762Z,17.37
2017-10-17T05:19:36.410Z,17.27
2017-10-17T05:20:36.732Z,17.29
2017-10-17T05:21:36.686Z,17.3
2017-10-17T05:22:36.773Z,17.31
2017-10-17T05:23:36.666Z,17.31
2017-10-17T05:24:36.736Z,17.37
2017-10-17T05:25:36.302Z,17.36
2017-10-17T05:26:36.614Z,17.36
2017-10-17T05:27:36.608Z,17.36
2017-10-17T05:28:36.691Z,17.15
2017-10-17T05:29:36.572Z,17.16
2017-10-17T05:30:36.230Z,17.09
2017-10-17T05:31:36.212Z,17.12
2017-10-17T05:32:36.236Z,17.16
2017-10-17T05:33:36.195Z,17.11
2017-10-17T05:34:36.155Z,17.09
2017-10-17T05:35:35.824Z,17.15
2017-10-17T05:36:36.143Z,17.19
2017-10-17T05:37:36.104Z,17.21
2017-10-17T05:38:36.088Z,17.15
2017-10-17T05:39:36.074Z,17.01
2017-10-17T05:40:36.054Z,16.96
2017-10-17T05:41:36.043Z,16.87
2017-10-17T05:42:36.331Z,16.89
2017-10-17T05:43:36.418Z,16.85
2017-10-17T05:44:36.323Z,16.87
2017-10-17T05:45:36.303Z,16.83
2017-10-17T05:46:36.295Z,16.69
2017-10-17T05:47:35.950Z,16.74
2017-10-17T05:48:35.936Z,16.75
2017-10-17T05:49:35.904Z,16.57
2017-10-17T05:50:36.233Z,16.85
2017-10-17T05:51:36.214Z,16.87
2017-10-17T05:52:36.179Z,16.83
2017-10-17T05:53:36.174Z,16.69
2017-10-17T05:54:35.507Z,16.71
2017-10-17T05:55:36.184Z,16.69
2017-10-17T05:56:36.111Z,16.68
2017-10-17T05:57:36.104Z,16.79
2017-10-17T05:58:36.093Z,16.74
2017-10-17T05:59:36.054Z,16.76
2017-10-17T06:00:36.055Z,16.81
2017-10-17T06:01:36.024Z,16.87
2017-10-17T06:02:36.023Z,16.76
2017-10-17T06:03:35.994Z,16.66
2017-10-17T06:04:35.974Z,16.79
2017-10-17T06:05:36.013Z,16.81
2017-10-17T06:06:35.954Z,16.71
2017-10-17T06:07:35.930Z,16.79
2017-10-17T06:08:35.577Z,16.82
2017-10-17T06:09:35.904Z,16.82
2017-10-17T06:10:35.878Z,16.79
2017-10-17T06:11:35.916Z,16.66
2017-10-17T06:12:35.837Z,16.58
2017-10-17T06:13:35.907Z,16.6
2017-10-17T06:14:35.804Z,16.63
2017-10-17T06:15:35.794Z,16.71
2017-10-17T06:16:35.783Z,16.79
2017-10-17T06:17:35.878Z,16.74
2017-10-17T06:18:35.735Z,16.9
2017-10-17T06:19:35.825Z,16.81
2017-10-17T06:20:35.712Z,16.9
2017-10-17T06:21:35.372Z,16.81
2017-10-17T06:22:35.685Z,16.89
2017-10-17T06:23:35.701Z,16.83
2017-10-17T06:24:35.633Z,16.76
2017-10-17T06:25:35.634Z,16.63
2017-10-17T06:26:34.961Z,16.75
2017-10-17T06:27:35.591Z,16.68
2017-10-17T06:28:35.576Z,16.79
2017-10-17T06:29:35.590Z,16.83
2017-10-17T06:30:35.612Z,16.93
2017-10-17T06:31:35.194Z,16.94
2017-10-17T06:32:35.521Z,16.83
2017-10-17T06:33:35.493Z,16.96
2017-10-17T06:34:35.552Z,16.94
2017-10-17T06:35:35.455Z,16.81
2017-10-17T06:36:35.519Z,16.93
2017-10-17T06:37:35.099Z,16.89
2017-10-17T06:38:35.074Z,16.79
2017-10-17T06:39:35.443Z,16.68
2017-10-17T06:40:35.373Z,16.57
2017-10-17T06:41:35.363Z,16.71
2017-10-17T06:42:35.382Z,16.68
2017-10-17T06:43:34.989Z,16.58
2017-10-17T06:44:34.983Z,16.57
2017-10-17T06:45:34.975Z,16.45
2017-10-17T06:46:35.332Z,16.56
2017-10-17T06:47:35.243Z,16.57
2017-10-17T06:48:35.231Z,16.58
2017-10-17T06:49:34.894Z,16.54
2017-10-17T06:50:34.872Z,16.57
2017-10-17T06:51:34.852Z,16.6
2017-10-17T06:52:35.163Z,16.56
2017-10-17T06:53:34.819Z,16.72
2017-10-17T06:54:34.812Z,16.72
2017-10-17T06:55:35.124Z,16.69
2017-10-17T06:56:35.102Z,16.74
2017-10-17T06:57:34.756Z,16.74
2017-10-17T06:58:34.796Z,16.66
2017-10-17T06:59:35.043Z,16.69
2017-10-17T07:00:35.034Z,16.74
2017-10-17T07:01:34.692Z,16.64
2017-10-17T07:02:34.994Z,16.57
2017-10-17T07:03:34.652Z,16.58
2017-10-17T07:04:34.636Z,16.61
2017-10-17T07:05:34.948Z,16.6
2017-10-17T07:06:34.594Z,16.79
2017-10-17T07:07:34.595Z,16.75
2017-10-17T07:08:34.973Z,16.79
2017-10-17T07:09:34.882Z,16.87
2017-10-17T07:10:34.873Z,16.83
2017-10-17T07:11:34.852Z,16.81
2017-10-17T07:12:34.492Z,16.81
2017-10-17T07:13:34.495Z,16.82
2017-10-17T07:14:34.778Z,16.71
2017-10-17T07:15:34.775Z,16.81
2017-10-17T07:16:34.744Z,16.81
2017-10-17T07:17:34.731Z,16.82
2017-10-17T07:18:34.405Z,16.82
2017-10-17T07:19:34.385Z,16.69
2017-10-17T07:20:34.354Z,16.85
2017-10-17T07:21:34.346Z,16.82
2017-10-17T07:22:34.664Z,16.85
2017-10-17T07:23:33.993Z,16.9
2017-10-17T07:24:34.301Z,17.03
2017-10-17T07:25:34.614Z,16.98
2017-10-17T07:26:34.602Z,16.82
2017-10-17T07:27:34.253Z,16.81
2017-10-17T07:28:33.903Z,16.79
2017-10-17T07:29:34.218Z,16.83
2017-10-17T07:30:34.521Z,16.85
2017-10-17T07:31:34.196Z,16.98
2017-10-17T07:32:34.495Z,17.08
2017-10-17T07:33:34.143Z,17.18
2017-10-17T07:34:34.458Z,17.12
2017-10-17T07:35:34.111Z,17.22
2017-10-17T07:36:34.431Z,17.11
2017-10-17T07:37:34.084Z,17.08
2017-10-17T07:38:34.383Z,17.11
2017-10-17T07:39:34.042Z,17.19
2017-10-17T07:40:34.372Z,17.21
2017-10-17T07:41:34.024Z,17.24
2017-10-17T07:42:33.988Z,17.31
2017-10-17T07:43:33.677Z,17.21
2017-10-17T07:44:33.961Z,17.18
2017-10-17T07:45:34.273Z,17.29
2017-10-17T07:46:33.922Z,17.31
2017-10-17T07:47:34.232Z,17.19
2017-10-17T07:48:33.902Z,17.15
2017-10-17T07:49:34.205Z,17.15
2017-10-17T07:50:34.195Z,17.05
2017-10-17T07:51:33.852Z,17.11
2017-10-17T07:52:34.153Z,17.09
2017-10-17T07:53:34.151Z,16.91
2017-10-17T07:54:34.123Z,17.14
2017-10-17T07:55:33.772Z,17.05
2017-10-17T07:56:33.763Z,17.16
2017-10-17T07:57:34.061Z,17.24
2017-10-17T07:58:34.051Z,17.22
2017-10-17T07:59:33.730Z,17.18
2017-10-17T08:00:33.718Z,17.22
2017-10-17T08:01:33.680Z,17.4
2017-10-17T08:02:33.665Z,17.34
2017-10-17T08:03:33.971Z,17.19
2017-10-17T08:04:33.962Z,17.37
2017-10-17T08:05:33.941Z,17.15
2017-10-17T08:06:33.942Z,17.15
2017-10-17T08:07:33.592Z,17.15
2017-10-17T08:08:33.892Z,17.14
2017-10-17T08:09:33.555Z,17.18
2017-10-17T08:10:33.291Z,17.16
2017-10-17T08:11:33.892Z,17.24
2017-10-17T08:12:33.852Z,17.34
2017-10-17T08:13:33.170Z,17.31
2017-10-17T08:14:33.785Z,17.14
2017-10-17T08:15:33.780Z,17.21
2017-10-17T08:16:33.783Z,17.24
2017-10-17T08:17:33.762Z,17.31
2017-10-17T08:18:33.535Z,17.48
2017-10-17T08:19:33.721Z,17.44
2017-10-17T08:20:33.696Z,17.52
2017-10-17T08:21:33.367Z,17.46
2017-10-17T08:22:33.674Z,17.45
2017-10-17T08:23:33.654Z,17.46
2017-10-17T08:24:33.634Z,17.65
2017-10-17T08:25:33.304Z,17.77
2017-10-17T08:26:33.626Z,17.82
2017-10-17T08:27:33.603Z,17.82
2017-10-17T08:28:33.581Z,17.77
2017-10-17T08:29:33.224Z,17.87
2017-10-17T08:30:33.560Z,17.98
2017-10-17T08:31:33.538Z,17.83
2017-10-17T08:32:33.510Z,17.85
2017-10-17T08:33:33.536Z,17.86
2017-10-17T08:34:33.501Z,17.72
2017-10-17T08:35:33.453Z,17.86
2017-10-17T08:36:33.133Z,17.98
2017-10-17T08:37:33.548Z,17.87
2017-10-17T08:38:33.425Z,17.85
2017-10-17T08:39:33.064Z,17.87
2017-10-17T08:40:33.057Z,17.85
2017-10-17T08:41:33.135Z,17.96
2017-10-17T08:42:33.344Z,17.98
2017-10-17T08:43:33.095Z,17.86
2017-10-17T08:44:33.341Z,18.02
2017-10-17T08:45:33.085Z,18.02
2017-10-17T08:46:32.979Z,17.89
2017-10-17T08:47:33.273Z,18
2017-10-17T08:48:32.926Z,18.14
2017-10-17T08:49:32.990Z,18.27
2017-10-17T08:50:33.226Z,18.11
2017-10-17T08:51:33.303Z,18.12
2017-10-17T08:52:33.193Z,18.04
2017-10-17T08:53:33.228Z,18.18
2017-10-17T08:54:33.274Z,18.08
2017-10-17T08:55:33.154Z,18
2017-10-17T08:56:32.794Z,17.86
2017-10-17T08:57:33.165Z,17.89
2017-10-17T08:58:33.102Z,17.98
2017-10-17T08:59:33.107Z,18.04
2017-10-17T09:00:33.114Z,18.05
2017-10-17T09:01:33.416Z,18.23
2017-10-17T09:02:32.705Z,18.12
2017-10-17T09:03:33.045Z,18.29
2017-10-17T09:04:32.359Z,18.41
2017-10-17T09:05:32.657Z,18.33
2017-10-17T09:06:33.054Z,18.41
2017-10-17T09:07:33.043Z,18.44
2017-10-17T09:08:32.618Z,18.51
2017-10-17T09:09:32.964Z,18.6
2017-10-17T09:10:32.965Z,18.75
2017-10-17T09:11:32.552Z,18.65
2017-10-17T09:12:32.544Z,18.67
2017-10-17T09:13:32.853Z,18.69
2017-10-17T09:14:32.517Z,18.7
2017-10-17T09:15:32.518Z,18.74
2017-10-17T09:16:32.494Z,18.73
2017-10-17T09:17:32.472Z,18.63
2017-10-17T09:18:32.472Z,18.6
2017-10-17T09:19:32.766Z,18.67
2017-10-17T09:20:32.424Z,18.74
2017-10-17T09:21:32.424Z,18.74
2017-10-17T09:22:32.742Z,18.8
2017-10-17T09:23:32.378Z,18.93
2017-10-17T09:24:32.686Z,18.92
2017-10-17T09:25:32.347Z,18.93
2017-10-17T09:26:32.348Z,18.87
2017-10-17T09:27:32.325Z,18.96
2017-10-17T09:28:32.633Z,18.85
2017-10-17T09:29:32.294Z,18.73
2017-10-17T09:30:32.593Z,18.75
2017-10-17T09:31:32.266Z,18.77
2017-10-17T09:32:32.574Z,18.85
2017-10-17T09:33:32.227Z,19
2017-10-17T09:34:32.213Z,19
2017-10-17T09:35:32.524Z,19.12
2017-10-17T09:36:32.517Z,18.88
2017-10-17T09:37:31.854Z,18.87
2017-10-17T09:38:32.473Z,18.96
2017-10-17T09:39:32.133Z,19.04
2017-10-17T09:40:32.455Z,19.04
2017-10-17T09:41:32.123Z,18.97
2017-10-17T09:42:32.094Z,18.93
2017-10-17T09:43:32.397Z,18.85
2017-10-17T09:44:32.401Z,18.99
2017-10-17T09:45:32.388Z,19.06
2017-10-17T09:46:32.037Z,18.82
2017-10-17T09:47:32.025Z,18.92
2017-10-17T09:48:31.683Z,18.9
2017-10-17T09:49:32.318Z,18.77
2017-10-17T09:50:31.963Z,18.84
2017-10-17T09:51:32.284Z,18.95
2017-10-17T09:52:31.627Z,19.04
2017-10-17T09:53:32.266Z,19.16
2017-10-17T09:54:31.604Z,19.18
2017-10-17T09:55:31.895Z,18.9
2017-10-17T09:56:31.884Z,18.92
2017-10-17T09:57:32.203Z,18.97
2017-10-17T09:58:32.174Z,18.95
2017-10-17T09:59:32.162Z,18.75
2017-10-17T10:00:32.165Z,18.78
2017-10-17T10:01:31.814Z,18.9
2017-10-17T10:02:31.794Z,18.93
2017-10-17T10:03:32.084Z,19.02
2017-10-17T10:04:32.117Z,19.07
2017-10-17T10:05:32.083Z,18.93
2017-10-17T10:06:31.743Z,18.92
2017-10-17T10:07:32.045Z,19.02
2017-10-17T10:08:32.035Z,19.18
2017-10-17T10:09:32.017Z,19.15
2017-10-17T10:10:31.674Z,19.23
2017-10-17T10:11:31.665Z,19.26
2017-10-17T10:12:31.994Z,19.3
2017-10-17T10:13:31.704Z,19.21
2017-10-17T10:14:31.935Z,19.3
2017-10-17T10:15:31.698Z,19.46
2017-10-17T10:16:31.903Z,19.44
2017-10-17T10:17:31.894Z,19.44
2017-10-17T10:18:31.885Z,19.33
2017-10-17T10:19:31.865Z,19.04
2017-10-17T10:20:31.538Z,19.11
2017-10-17T10:21:31.517Z,18.87
2017-10-17T10:22:31.504Z,19
2017-10-17T10:23:31.257Z,19.21
2017-10-17T10:24:31.463Z,19.37
2017-10-17T10:25:31.494Z,19.19
2017-10-17T10:26:31.754Z,19.08
2017-10-17T10:27:31.448Z,18.88
2017-10-17T10:28:31.456Z,18.84
2017-10-17T10:29:31.404Z,19.15
2017-10-17T10:30:31.687Z,19.43
2017-10-17T10:31:31.687Z,19.56
2017-10-17T10:32:31.378Z,19.66
2017-10-17T10:33:31.338Z,19.78
2017-10-17T10:34:31.758Z,19.77
2017-10-17T10:35:31.637Z,19.71
2017-10-17T10:36:31.604Z,19.83
2017-10-17T10:37:31.388Z,19.96
2017-10-17T10:38:31.266Z,20.1
2017-10-17T10:39:31.589Z,20.11
2017-10-17T10:40:31.274Z,20.33
2017-10-17T10:41:31.249Z,20.41
2017-10-17T10:42:31.666Z,20.36
2017-10-17T10:43:31.621Z,20.4
2017-10-17T10:44:31.202Z,20.49
2017-10-17T10:45:31.495Z,20.52
2017-10-17T10:46:31.248Z,20.79
2017-10-17T10:47:31.238Z,20.95
2017-10-17T10:48:31.140Z,21.18
2017-10-17T10:49:31.457Z,21.02
2017-10-17T10:50:31.506Z,20.82
2017-10-17T10:51:31.104Z,20.72
2017-10-17T10:52:31.395Z,20.62
2017-10-17T10:53:31.460Z,20.47
2017-10-17T10:54:31.474Z,20.38
2017-10-17T10:55:31.417Z,20.43
2017-10-17T10:56:31.458Z,20.44
2017-10-17T10:57:31.005Z,20.55
2017-10-17T10:58:31.358Z,20.52
2017-10-17T10:59:30.983Z,20.36
2017-10-17T11:00:31.334Z,20.44
2017-10-17T11:01:31.395Z,20.4
2017-10-17T11:02:30.621Z,20.35
2017-10-17T11:03:31.274Z,20.33
2017-10-17T11:04:31.264Z,20.43
2017-10-17T11:05:31.232Z,20.38
2017-10-17T11:06:31.216Z,20.43
2017-10-17T11:07:31.209Z,20.41
2017-10-17T11:08:31.181Z,20.33
2017-10-17T11:09:30.518Z,20.25
2017-10-17T11:10:31.231Z,20.25
2017-10-17T11:11:31.147Z,20.35
2017-10-17T11:12:31.143Z,20.06
2017-10-17T11:13:30.794Z,20.03
2017-10-17T11:14:31.107Z,19.69
2017-10-17T11:15:31.105Z,19.69
2017-10-17T11:16:31.088Z,19.81
2017-10-17T11:17:31.067Z,19.89
2017-10-17T11:18:31.046Z,19.96
2017-10-17T11:19:31.044Z,20.1
2017-10-17T11:20:31.024Z,19.96
2017-10-17T11:21:31.035Z,19.85
2017-10-17T11:22:30.666Z,19.85
2017-10-17T11:23:30.996Z,19.91
2017-10-17T11:24:30.989Z,19.53
2017-10-17T11:25:30.957Z,19.61
2017-10-17T11:26:30.930Z,19.81
2017-10-17T11:27:30.612Z,19.81
2017-10-17T11:28:30.924Z,19.63
2017-10-17T11:29:30.895Z,19.76
2017-10-17T11:30:30.876Z,19.83
2017-10-17T11:31:30.878Z,19.91
2017-10-17T11:32:30.525Z,19.99
2017-10-17T11:33:30.826Z,19.83
2017-10-17T11:34:30.525Z,19.8
2017-10-17T11:35:30.491Z,19.71
2017-10-17T11:36:30.778Z,19.92
2017-10-17T11:37:30.778Z,19.92
2017-10-17T11:38:30.786Z,20.2
2017-10-17T11:39:30.763Z,20.33
2017-10-17T11:40:30.416Z,20.49
2017-10-17T11:41:30.395Z,20.25
2017-10-17T11:42:30.709Z,20.41
2017-10-17T11:43:30.686Z,20.44
2017-10-17T11:44:30.685Z,20.36
2017-10-17T11:45:30.677Z,20.29
2017-10-17T11:46:30.646Z,20.32
2017-10-17T11:47:30.008Z,20.32
2017-10-17T11:48:30.637Z,20.52
2017-10-17T11:49:30.626Z,20.76
2017-10-17T11:50:30.267Z,20.62
2017-10-17T11:51:29.932Z,20.55
2017-10-17T11:52:30.566Z,20.6
2017-10-17T11:53:30.226Z,20.78
2017-10-17T11:54:30.214Z,20.82
2017-10-17T11:55:30.195Z,20.64
2017-10-17T11:56:30.200Z,20.63
2017-10-17T11:57:30.173Z,20.63
2017-10-17T11:58:30.160Z,20.4
2017-10-17T11:59:30.146Z,20.54
2017-10-17T12:00:30.136Z,20.67
2017-10-17T12:01:30.461Z,20.62
2017-10-17T12:02:30.117Z,20.72
2017-10-17T12:03:30.097Z,20.91
2017-10-17T12:04:30.515Z,20.99
2017-10-17T12:05:30.449Z,20.72
2017-10-17T12:06:30.364Z,20.55
2017-10-17T12:07:30.047Z,20.54
2017-10-17T12:08:30.037Z,20.7
2017-10-17T12:09:30.339Z,20.81
2017-10-17T12:10:30.094Z,20.95
2017-10-17T12:11:30.066Z,20.81
2017-10-17T12:12:29.988Z,20.82
2017-10-17T12:13:30.284Z,20.92
2017-10-17T12:14:30.071Z,21.06
2017-10-17T12:15:30.270Z,21.04
2017-10-17T12:16:29.988Z,21.17
2017-10-17T12:17:30.256Z,21.18
2017-10-17T12:18:30.292Z,21.24
2017-10-17T12:19:29.902Z,21.21
2017-10-17T12:20:29.906Z,21.34
2017-10-17T12:21:30.214Z,21.43
2017-10-17T12:22:29.887Z,21.04
2017-10-17T12:23:30.155Z,20.94
2017-10-17T12:24:30.140Z,20.95
2017-10-17T12:25:30.138Z,21.07
2017-10-17T12:26:29.848Z,21.06
2017-10-17T12:27:29.789Z,21.25
2017-10-17T12:28:30.092Z,21.26
2017-10-17T12:29:30.066Z,21.43
2017-10-17T12:30:30.096Z,21.37
2017-10-17T12:31:29.745Z,21.4
2017-10-17T12:32:30.057Z,21.46
2017-10-17T12:33:29.735Z,21.17
2017-10-17T12:34:29.738Z,21.17
2017-10-17T12:35:30.022Z,21.28
2017-10-17T12:36:30.054Z,20.94
2017-10-17T12:37:29.990Z,20.73
2017-10-17T12:38:29.967Z,20.76
2017-10-17T12:39:29.305Z,20.74
2017-10-17T12:40:29.938Z,20.88
2017-10-17T12:41:29.592Z,21.15
2017-10-17T12:42:29.907Z,21.24
2017-10-17T12:43:29.906Z,21.15
2017-10-17T12:44:29.887Z,21.25
2017-10-17T12:45:29.536Z,21.43
2017-10-17T12:46:29.870Z,21.25
2017-10-17T12:47:29.837Z,20.91
2017-10-17T12:48:29.503Z,21.07
2017-10-17T12:49:29.215Z,20.85
2017-10-17T12:50:29.482Z,20.62
2017-10-17T12:51:29.805Z,20.58
2017-10-17T12:52:29.764Z,20.78
2017-10-17T12:53:29.114Z,20.87
2017-10-17T12:54:29.746Z,20.94
2017-10-17T12:55:29.116Z,21.18